Time;durP1;ratioP1;P1;durP2;ratioP2;P2;SDS_P1;SDS_P2;PMS_P1;PMS_P2;Temp;Humidity;BMP_temperature;BMP_pressure;BME280_temperature;BME280_humidity;BME280_pressure;Samples;Min_cycle;Max_cycle;Signal;HPM_P1;HPM_P2
2024/03/07 00:00:14;;;;;;;105.15;32.53;;;1.60;99.90;;;;;;5043109;28;20464;-63
2024/03/07 00:02:50;;;;;;;106.47;32.50;;;1.60;99.90;;;;;;5045478;28;20493;-63
2024/03/07 00:05:21;;;;;;;101.90;32.63;;;1.50;99.90;;;;;;5043860;28;20025;-63
2024/03/07 00:07:47;;;;;;;101.45;32.53;;;1.50;99.90;;;;;;5049878;28;20438;-63
2024/03/07 00:10:15;;;;;;;108.32;31.13;;;1.40;99.90;;;;;;5041448;28;20432;-63
2024/03/07 00:12:40;;;;;;;98.53;30.90;;;1.40;99.90;;;;;;5048639;28;20023;-63
2024/03/07 00:15:11;;;;;;;105.75;30.20;;;1.30;99.90;;;;;;5044374;28;20406;-63
2024/03/07 00:17:38;;;;;;;100.60;31.38;;;1.20;99.90;;;;;;5051500;28;20263;-63
2024/03/07 00:20:08;;;;;;;108.78;31.67;;;1.20;99.90;;;;;;5043500;28;20021;-64
2024/03/07 00:22:35;;;;;;;;;;;1.30;99.90;;;;;;5048046;28;20025;-64
2024/03/07 00:25:01;;;;;;;95.00;29.63;;;1.40;99.90;;;;;;5040993;28;19917;-63
2024/03/07 00:27:27;;;;;;;97.03;29.08;;;1.40;99.90;;;;;;5047285;28;20435;-63
2024/03/07 00:29:53;;;;;;;100.80;32.03;;;1.30;99.90;;;;;;5044730;28;20029;-63
2024/03/07 00:32:23;;;;;;;104.03;30.55;;;1.20;99.90;;;;;;5045015;28;20464;-63
2024/03/07 00:34:49;;;;;;;101.82;32.58;;;1.20;99.90;;;;;;5048856;28;20296;-63
2024/03/07 00:37:16;;;;;;;104.95;32.42;;;1.30;99.90;;;;;;5049894;28;20045;-64
2024/03/07 00:39:42;;;;;;;101.75;32.28;;;1.20;99.90;;;;;;5048016;28;20040;-63
2024/03/07 00:42:08;;;;;;;112.47;31.45;;;1.20;99.90;;;;;;5051757;28;20345;-63
2024/03/07 00:44:37;;;;;;;97.20;32.55;;;1.10;99.90;;;;;;5045913;28;20037;-62
2024/03/07 00:47:03;;;;;;;113.30;32.42;;;1.10;99.90;;;;;;5035399;28;20026;-63
2024/03/07 00:49:29;;;;;;;97.57;32.97;;;1.10;99.90;;;;;;5050438;28;20024;-63
2024/03/07 00:51:55;;;;;;;101.47;31.13;;;1.20;99.90;;;;;;5042240;28;20021;-64
2024/03/07 00:54:21;;;;;;;88.40;29.70;;;1.20;99.90;;;;;;5042383;28;20079;-63
2024/03/07 00:56:49;;;;;;;98.53;30.13;;;1.10;99.90;;;;;;5049045;28;20029;-63
2024/03/07 00:59:18;;;;;;;96.38;30.00;;;1.00;99.90;;;;;;5043203;28;20618;-63
2024/03/07 01:01:44;;;;;;;94.72;29.35;;;0.90;99.90;;;;;;5045613;28;20033;-63
2024/03/07 01:04:09;;;;;;;94.20;31.10;;;0.80;99.90;;;;;;5050274;28;20367;-63
2024/03/07 01:06:40;;;;;;;96.10;31.58;;;0.80;99.90;;;;;;5038502;28;20033;-63
2024/03/07 01:09:13;;;;;;;107.90;31.20;;;0.90;99.90;;;;;;5046615;28;20430;-63
2024/03/07 01:11:40;;;;;;;96.05;29.90;;;0.90;99.90;;;;;;5045556;28;20026;-63
2024/03/07 01:14:05;;;;;;;92.93;29.30;;;0.80;99.90;;;;;;5038666;28;20041;-63
2024/03/07 01:16:31;;;;;;;93.97;28.25;;;0.70;99.90;;;;;;5040226;28;20033;-63
2024/03/07 01:18:56;;;;;;;96.40;29.40;;;0.60;99.90;;;;;;5038514;28;20032;-63
2024/03/07 01:21:24;;;;;;;96.85;29.92;;;0.60;99.90;;;;;;5036442;28;20646;-64
2024/03/07 01:23:49;;;;;;;97.28;29.98;;;0.50;99.90;;;;;;5043870;28;20483;-63
2024/03/07 01:26:15;;;;;;;103.85;33.05;;;0.50;99.90;;;;;;5041085;28;20026;-63
2024/03/07 01:28:41;;;;;;;101.18;30.48;;;0.50;99.90;;;;;;5045115;28;20039;-63
2024/03/07 01:31:07;;;;;;;103.25;31.15;;;0.50;99.90;;;;;;5042105;28;20025;-63
2024/03/07 01:33:33;;;;;;;92.55;32.03;;;0.50;99.90;;;;;;5045531;28;20032;-63
2024/03/07 01:35:59;;;;;;;100.43;31.00;;;0.40;99.90;;;;;;5036827;28;20029;-62
2024/03/07 01:38:25;;;;;;;104.65;31.90;;;0.40;99.90;;;;;;5040330;28;20502;-62
2024/03/07 01:40:50;;;;;;;104.15;30.67;;;0.30;99.90;;;;;;5035451;28;20391;-62
2024/03/07 01:43:16;;;;;;;120.50;33.92;;;0.30;99.90;;;;;;5039712;28;20021;-63
2024/03/07 01:45:42;;;;;;;100.00;30.55;;;0.30;99.90;;;;;;5039343;28;20378;-63
2024/03/07 01:48:09;;;;;;;104.55;31.80;;;0.40;99.90;;;;;;5040008;28;20036;-63
2024/03/07 01:50:38;;;;;;;106.57;30.23;;;0.30;99.90;;;;;;5045348;28;20064;-63
2024/03/07 01:53:06;;;;;;;106.93;32.20;;;0.30;99.90;;;;;;5038327;28;20021;-63
2024/03/07 01:55:33;;;;;;;100.25;31.77;;;0.20;99.90;;;;;;5037830;28;20400;-62
2024/03/07 01:58:00;;;;;;;97.40;30.80;;;0.20;99.90;;;;;;5040236;28;20540;-62
2024/03/07 02:00:25;;;;;;;90.43;29.63;;;0.20;99.90;;;;;;5037428;28;20104;-62
2024/03/07 02:02:53;;;;;;;96.90;30.38;;;0.10;99.90;;;;;;5041146;28;20100;-63
2024/03/07 02:05:19;;;;;;;93.35;30.83;;;0.10;99.90;;;;;;5037875;28;20109;-63
2024/03/07 02:07:45;;;;;;;91.65;29.70;;;0.10;99.90;;;;;;5040963;28;20025;-63
2024/03/07 02:10:10;;;;;;;91.60;31.35;;;0.10;99.90;;;;;;5038290;28;20079;-62
2024/03/07 02:12:36;;;;;;;101.72;31.65;;;0.10;99.90;;;;;;5040151;28;20377;-63
2024/03/07 02:15:02;;;;;;;102.22;29.65;;;0.10;99.90;;;;;;5038139;28;20041;-62
2024/03/07 02:17:28;;;;;;;90.85;29.92;;;0.10;99.90;;;;;;5034798;28;20049;-63
2024/03/07 02:19:54;;;;;;;95.85;28.73;;;0.10;99.90;;;;;;5040701;28;20074;-63
2024/03/07 02:22:20;;;;;;;89.72;28.55;;;0.20;99.90;;;;;;5037091;28;20038;-62
2024/03/07 02:24:46;;;;;;;97.68;30.30;;;0.20;99.90;;;;;;5035974;28;20034;-62
2024/03/07 02:27:14;;;;;;;93.25;30.17;;;0.10;99.90;;;;;;5040390;28;20029;-63
2024/03/07 02:29:43;;;;;;;89.57;30.25;;;0.20;99.90;;;;;;5037266;28;20021;-63
2024/03/07 02:32:09;;;;;;;92.00;29.67;;;0.30;99.90;;;;;;5039801;28;20025;-63
2024/03/07 02:34:35;;;;;;;90.05;29.15;;;0.30;99.90;;;;;;5038757;28;20021;-63
2024/03/07 02:37:01;;;;;;;92.65;28.98;;;0.20;99.90;;;;;;5043038;28;20033;-63
2024/03/07 02:39:27;;;;;;;90.70;29.25;;;0.20;99.90;;;;;;5040926;28;20441;-63
2024/03/07 02:41:53;;;;;;;85.78;29.52;;;0.10;99.90;;;;;;5039372;28;20028;-63
2024/03/07 02:44:19;;;;;;;87.07;28.85;;;0.10;99.90;;;;;;5036503;28;20067;-63
2024/03/07 02:46:46;;;;;;;83.03;28.92;;;0.10;99.90;;;;;;5039773;28;20392;-63
2024/03/07 02:49:13;;;;;;;86.00;29.02;;;0.10;99.90;;;;;;5034738;28;20017;-62
2024/03/07 02:51:38;;;;;;;105.43;29.48;;;0.20;99.90;;;;;;5038447;28;20546;-64
2024/03/07 02:54:05;;;;;;;85.68;28.67;;;0.10;99.90;;;;;;5036631;28;20092;-63
2024/03/07 02:56:31;;;;;;;89.20;28.67;;;0.00;99.90;;;;;;5038548;28;20579;-63
2024/03/07 02:58:57;;;;;;;84.18;28.10;;;0.00;99.90;;;;;;5037560;28;20520;-63
2024/03/07 03:01:22;;;;;;;86.57;29.80;;;-0.10;99.90;;;;;;5036870;28;20052;-63
2024/03/07 03:03:48;;;;;;;89.57;29.38;;;-0.10;99.90;;;;;;5040071;28;20028;-63
2024/03/07 03:06:14;;;;;;;92.35;28.70;;;-0.10;99.90;;;;;;5036132;28;20663;-63
2024/03/07 03:08:40;;;;;;;88.28;27.05;;;-0.20;99.90;;;;;;5043421;28;20026;-63
2024/03/07 03:11:09;;;;;;;81.97;26.80;;;-0.20;99.90;;;;;;5037113;28;20030;-63
2024/03/07 03:13:37;;;;;;;83.22;27.73;;;-0.20;99.90;;;;;;5038989;28;20425;-63
2024/03/07 03:16:06;;;;;;;94.00;28.98;;;-0.30;99.90;;;;;;5036753;28;20025;-63
2024/03/07 03:18:33;;;;;;;96.53;28.80;;;-0.30;99.90;;;;;;5034905;28;20025;-63
2024/03/07 03:20:59;;;;;;;96.40;29.58;;;-0.40;99.90;;;;;;5034579;28;20033;-62
2024/03/07 03:23:25;;;;;;;84.30;29.25;;;-0.40;99.90;;;;;;5034511;28;20076;-63
2024/03/07 03:25:51;;;;;;;87.22;30.13;;;-0.30;99.90;;;;;;5036114;28;20041;-63
2024/03/07 03:28:18;;;;;;;90.45;29.73;;;-0.30;99.90;;;;;;5034957;28;20084;-63
2024/03/07 03:30:44;;;;;;;82.10;28.92;;;-0.30;99.90;;;;;;5035387;28;20029;-63
2024/03/07 03:33:10;;;;;;;89.38;27.95;;;-0.40;99.90;;;;;;5039286;28;20033;-63
2024/03/07 03:35:39;;;;;;;87.80;27.67;;;-0.40;99.90;;;;;;5043063;28;20032;-63
2024/03/07 03:38:06;;;;;;;81.32;27.73;;;-0.50;99.90;;;;;;5039783;28;20028;-64
2024/03/07 03:40:32;;;;;;;88.10;29.52;;;-0.50;99.90;;;;;;5037210;28;20511;-64
2024/03/07 03:42:58;;;;;;;89.68;28.25;;;-0.60;99.90;;;;;;5038539;28;20057;-63
2024/03/07 03:45:25;;;;;;;91.78;29.50;;;-0.60;99.90;;;;;;5038324;28;20021;-63
2024/03/07 03:47:51;;;;;;;97.63;30.10;;;-0.60;99.90;;;;;;5037799;28;20030;-63
2024/03/07 03:50:17;;;;;;;89.28;27.95;;;-0.60;99.90;;;;;;5038125;28;20053;-63
2024/03/07 03:52:43;;;;;;;85.20;28.65;;;-0.70;99.90;;;;;;5039957;28;20456;-63
2024/03/07 03:55:09;;;;;;;87.03;28.10;;;-0.60;99.90;;;;;;5034283;28;20649;-62
2024/03/07 03:57:36;;;;;;;91.18;27.55;;;-0.70;99.90;;;;;;5039740;28;20037;-62
2024/03/07 04:00:12;;;;;;;82.25;27.80;;;-0.70;99.90;;;;;;5039315;28;20029;-62
2024/03/07 04:02:48;;;;;;;87.72;28.35;;;-0.80;99.90;;;;;;5039644;28;20029;-62
2024/03/07 04:05:15;;;;;;;92.20;30.15;;;-0.90;99.90;;;;;;5037858;28;20083;-62
2024/03/07 04:07:41;;;;;;;87.03;29.20;;;-0.90;99.90;;;;;;5043247;28;20047;-63
2024/03/07 04:10:08;;;;;;;78.53;26.23;;;-1.00;99.90;;;;;;5042217;28;20476;-62
2024/03/07 04:12:34;;;;;;;90.80;30.30;;;-1.00;99.90;;;;;;5037657;28;20400;-62
2024/03/07 04:15:01;;;;;;;95.07;30.73;;;-1.00;99.90;;;;;;5040485;28;20496;-62
2024/03/07 04:17:26;;;;;;;95.82;29.50;;;-1.00;99.90;;;;;;5037710;28;20018;-62
2024/03/07 04:19:52;;;;;;;100.68;31.27;;;-1.00;99.90;;;;;;5041025;28;20106;-62
2024/03/07 04:22:20;;;;;;;96.05;30.70;;;-1.10;99.90;;;;;;5041371;28;20519;-62
2024/03/07 04:24:48;;;;;;;93.68;30.15;;;-1.10;99.90;;;;;;5038436;28;20041;-62
2024/03/07 04:27:13;;;;;;;89.50;29.90;;;-1.10;99.90;;;;;;5042181;28;20028;-61
2024/03/07 04:29:39;;;;;;;107.50;31.08;;;-1.20;99.90;;;;;;5043585;28;20100;-62
2024/03/07 04:32:05;;;;;;;98.75;30.10;;;-1.30;99.90;;;;;;5039701;28;20028;-62
2024/03/07 04:34:31;;;;;;;95.63;32.00;;;-1.20;99.90;;;;;;5040517;28;20025;-62
2024/03/07 04:36:58;;;;;;;93.80;30.23;;;-1.20;99.90;;;;;;5042871;28;20021;-62
2024/03/07 04:39:27;;;;;;;95.07;27.70;;;-1.20;99.90;;;;;;5038830;28;20028;-62
2024/03/07 04:41:54;;;;;;;91.28;29.95;;;-1.10;99.90;;;;;;5042070;28;20053;-62
2024/03/07 04:44:24;;;;;;;97.38;31.05;;;-1.10;99.90;;;;;;5040484;28;20029;-62
2024/03/07 04:46:51;;;;;;;100.45;28.48;;;-1.10;99.90;;;;;;5043473;28;20029;-62
2024/03/07 04:49:16;;;;;;;100.47;31.88;;;-1.10;99.90;;;;;;5039641;28;20025;-62
2024/03/07 04:51:43;;;;;;;93.30;29.33;;;-1.10;99.90;;;;;;5041722;28;20100;-62
2024/03/07 04:54:08;;;;;;;91.70;29.05;;;-1.10;99.90;;;;;;5036126;28;20068;-62
2024/03/07 04:56:34;;;;;;;91.30;29.13;;;-1.10;99.90;;;;;;5041896;28;20037;-62
2024/03/07 04:58:59;;;;;;;93.05;29.48;;;-1.20;99.90;;;;;;5039173;28;20120;-62
2024/03/07 05:01:25;;;;;;;101.50;30.48;;;-1.20;99.90;;;;;;5036014;28;20399;-62
2024/03/07 05:03:52;;;;;;;94.45;28.48;;;-1.20;99.90;;;;;;5037101;28;20045;-62
2024/03/07 05:06:18;;;;;;;83.38;28.80;;;-1.20;99.90;;;;;;5037811;28;20029;-62
2024/03/07 05:08:44;;;;;;;99.35;30.52;;;-1.20;99.90;;;;;;5037575;28;20030;-62
2024/03/07 05:11:10;;;;;;;75.55;26.30;;;-1.30;99.90;;;;;;5041555;28;20031;-62
2024/03/07 05:13:36;;;;;;;74.68;26.95;;;-1.20;99.90;;;;;;5035956;28;20018;-62
2024/03/07 05:16:02;;;;;;;84.50;28.05;;;-1.20;99.90;;;;;;5036895;28;20017;-62
2024/03/07 05:18:28;;;;;;;82.35;27.30;;;-1.30;99.90;;;;;;5035526;28;20080;-62
2024/03/07 05:20:54;;;;;;;89.20;27.35;;;-1.40;99.90;;;;;;5041872;28;20028;-62
2024/03/07 05:23:20;;;;;;;83.35;27.42;;;-1.40;99.90;;;;;;5040203;28;20036;-62
2024/03/07 05:25:46;;;;;;;78.05;27.48;;;-1.50;99.90;;;;;;5035734;28;20040;-62
2024/03/07 05:28:12;;;;;;;77.75;26.67;;;-1.50;99.90;;;;;;5041825;28;20029;-62
2024/03/07 05:30:37;;;;;;;76.85;25.55;;;-1.50;99.90;;;;;;5040505;28;20025;-62
2024/03/07 05:33:04;;;;;;;92.22;27.25;;;-1.60;99.90;;;;;;5045313;28;20024;-62
2024/03/07 05:35:29;;;;;;;79.82;28.23;;;-1.60;99.90;;;;;;5047813;28;20403;-62
2024/03/07 05:37:56;;;;;;;84.22;26.50;;;-1.60;99.90;;;;;;5046287;28;20017;-62
2024/03/07 05:40:22;;;;;;;93.95;27.52;;;-1.60;99.90;;;;;;5043925;28;20017;-63
2024/03/07 05:42:48;;;;;;;82.55;26.45;;;-1.60;99.90;;;;;;5062073;28;20040;-62
2024/03/07 05:45:17;;;;;;;76.78;28.17;;;-1.50;99.90;;;;;;5046537;28;20112;-63
2024/03/07 05:47:43;;;;;;;95.53;28.67;;;-1.50;99.90;;;;;;5041605;28;20032;-62
2024/03/07 05:50:09;;;;;;;81.82;28.20;;;-1.60;99.90;;;;;;5040634;28;20682;-62
2024/03/07 05:52:35;;;;;;;94.47;29.77;;;-1.60;99.90;;;;;;5050250;28;20056;-63
2024/03/07 05:55:00;;;;;;;84.85;27.88;;;-1.60;99.90;;;;;;5036600;28;20108;-63
2024/03/07 05:57:26;;;;;;;87.47;28.60;;;-1.60;99.90;;;;;;5037521;28;20396;-62
2024/03/07 05:59:51;;;;;;;89.15;29.13;;;-1.60;99.90;;;;;;5037119;28;20135;-63
2024/03/07 06:02:17;;;;;;;88.22;28.33;;;-1.60;99.90;;;;;;5036847;28;20017;-63
2024/03/07 06:04:43;;;;;;;94.90;31.42;;;-1.60;99.90;;;;;;5037079;28;20025;-62
2024/03/07 06:07:10;;;;;;;100.60;32.38;;;-1.60;99.90;;;;;;5034882;28;20531;-62
2024/03/07 06:09:36;;;;;;;97.93;30.10;;;-1.50;99.90;;;;;;5037507;28;20013;-63
2024/03/07 06:12:04;;;;;;;85.13;29.02;;;-1.30;99.90;;;;;;5035950;28;20570;-63
2024/03/07 06:14:30;;;;;;;94.93;31.17;;;-1.30;99.90;;;;;;5040390;28;20091;-63
2024/03/07 06:16:58;;;;;;;103.72;32.80;;;-1.30;99.90;;;;;;5037607;28;20021;-63
2024/03/07 06:19:23;;;;;;;87.57;29.35;;;-1.40;99.90;;;;;;5036730;28;20025;-64
2024/03/07 06:21:49;;;;;;;96.82;29.95;;;-1.50;99.90;;;;;;5039356;28;20033;-64
2024/03/07 06:24:17;;;;;;;103.72;30.75;;;-1.60;99.90;;;;;;5037042;28;20256;-63
2024/03/07 06:27:03;;;;;;;98.05;30.20;;;-1.70;99.90;;;;;;5039474;28;20377;-64
2024/03/07 06:29:29;;;;;;;97.18;30.23;;;-1.70;99.90;;;;;;5038540;28;20608;-63
2024/03/07 06:31:55;;;;;;;98.65;30.92;;;-1.70;99.90;;;;;;5034780;28;20044;-64
2024/03/07 06:34:21;;;;;;;103.35;30.75;;;-1.70;99.90;;;;;;5034483;28;20468;-63
2024/03/07 06:36:46;;;;;;;98.78;29.90;;;-1.70;99.90;;;;;;5040304;28;20032;-63
2024/03/07 06:39:12;;;;;;;98.57;30.98;;;-1.60;99.90;;;;;;5043683;28;20021;-63
2024/03/07 06:41:39;;;;;;;103.70;29.77;;;-1.60;99.90;;;;;;5042454;28;20048;-63
2024/03/07 06:44:05;;;;;;;98.47;31.67;;;-1.50;99.90;;;;;;5042556;28;20555;-63
2024/03/07 06:46:32;;;;;;;96.88;31.92;;;-1.40;99.90;;;;;;5044716;28;20027;-63
2024/03/07 06:48:57;;;;;;;97.03;31.80;;;-1.30;99.90;;;;;;5035518;28;20080;-63
2024/03/07 06:51:24;;;;;;;104.68;30.73;;;-1.30;99.90;;;;;;5039958;28;20033;-63
2024/03/07 06:53:50;;;;;;;131.07;35.78;;;-1.10;99.90;;;;;;5042945;28;20029;-63
2024/03/07 06:56:16;;;;;;;140.52;41.70;;;-1.00;99.90;;;;;;5040138;28;20025;-63
2024/03/07 06:58:42;;;;;;;125.25;36.25;;;-0.80;99.90;;;;;;5032334;28;20033;-64
2024/03/07 07:01:10;;;;;;;129.77;37.22;;;-0.50;99.90;;;;;;5045867;28;20112;-64
2024/03/07 07:03:37;;;;;;;125.22;36.30;;;-0.30;99.90;;;;;;5036161;28;20114;-64
2024/03/07 07:06:05;;;;;;;156.90;38.53;;;-0.30;99.90;;;;;;5039984;28;20032;-64
2024/03/07 07:08:32;;;;;;;126.82;37.45;;;-0.30;99.90;;;;;;5043206;28;20021;-64
2024/03/07 07:10:58;;;;;;;161.77;45.22;;;-0.20;99.90;;;;;;5036256;28;20158;-64
2024/03/07 07:13:24;;;;;;;151.05;43.53;;;-0.10;99.90;;;;;;5044206;28;20091;-64
2024/03/07 07:15:49;;;;;;;152.25;41.97;;;0.00;99.90;;;;;;5038476;28;20451;-64
2024/03/07 07:18:16;;;;;;;141.60;39.42;;;0.10;99.90;;;;;;5040230;28;20026;-63
2024/03/07 07:20:41;;;;;;;159.70;40.05;;;0.20;99.90;;;;;;5037299;28;20021;-64
2024/03/07 07:23:07;;;;;;;135.57;38.55;;;0.10;99.90;;;;;;5033666;28;20028;-64
2024/03/07 07:25:33;;;;;;;154.57;40.17;;;0.10;99.90;;;;;;5036007;28;20028;-63
2024/03/07 07:27:59;;;;;;;154.93;40.88;;;0.10;99.90;;;;;;5037345;28;20401;-63
2024/03/07 07:30:26;;;;;;;140.93;40.97;;;0.20;99.90;;;;;;5039739;28;20033;-63
2024/03/07 07:32:53;;;;;;;146.48;40.00;;;0.20;99.90;;;;;;5042361;28;20017;-63
2024/03/07 07:35:20;;;;;;;149.65;38.60;;;0.30;99.90;;;;;;5041453;28;20021;-63
2024/03/07 07:37:48;;;;;;;141.30;38.55;;;0.40;99.90;;;;;;5045066;28;20134;-64
2024/03/07 07:40:18;;;;;;;149.75;40.00;;;0.40;99.90;;;;;;5041886;28;20028;-63
2024/03/07 07:42:46;;;;;;;127.18;35.55;;;0.50;99.90;;;;;;5043296;28;20036;-63
2024/03/07 07:45:12;;;;;;;145.27;37.28;;;0.60;99.90;;;;;;5042235;28;20027;-63
2024/03/07 07:47:43;;;;;;;132.15;37.70;;;0.80;99.90;;;;;;5042636;28;20029;-63
2024/03/07 07:50:17;;;;;;;117.85;36.75;;;1.10;99.90;;;;;;5042755;28;20029;-63
2024/03/07 07:52:47;;;;;;;119.95;35.03;;;1.40;99.90;;;;;;5042384;28;20509;-63
2024/03/07 07:55:42;;;;;;;114.60;38.30;;;1.60;99.90;;;;;;5049674;28;20040;-63
2024/03/07 07:58:08;;;;;;;120.30;35.85;;;1.90;99.90;;;;;;5043172;28;20037;-62
2024/03/07 08:00:35;;;;;;;107.43;34.20;;;2.00;99.90;;;;;;5039118;28;20040;-62
2024/03/07 08:03:02;;;;;;;112.75;34.45;;;2.10;99.90;;;;;;5043865;28;20028;-63
2024/03/07 08:05:32;;;;;;;114.93;43.63;;;2.30;99.90;;;;;;5045720;28;20087;-65
2024/03/07 08:08:02;;;;;;;84.15;28.63;;;2.40;99.90;;;;;;5041822;28;20112;-65
2024/03/07 08:10:29;;;;;;;104.40;34.00;;;2.30;99.90;;;;;;5035397;28;20026;-63
2024/03/07 08:12:55;;;;;;;105.43;39.28;;;2.30;99.90;;;;;;5047339;28;20060;-62
2024/03/07 08:15:21;;;;;;;74.32;26.13;;;2.30;99.90;;;;;;5038836;28;20065;-64
2024/03/07 08:17:48;;;;;;;100.88;33.70;;;2.30;99.90;;;;;;5046268;28;20064;-63
2024/03/07 08:20:15;;;;;;;92.95;31.95;;;2.30;99.90;;;;;;5040604;28;20029;-62
2024/03/07 08:22:42;;;;;;;94.03;30.15;;;2.40;99.90;;;;;;5039494;28;20040;-62
2024/03/07 08:25:13;;;;;;;82.20;31.23;;;2.50;99.90;;;;;;5040556;28;20021;-62
2024/03/07 08:27:41;;;;;;;87.88;31.33;;;2.60;99.90;;;;;;5038890;28;20137;-64
2024/03/07 08:30:12;;;;;;;95.55;33.22;;;2.60;99.90;;;;;;5044201;28;20411;-62
2024/03/07 08:32:39;;;;;;;92.05;33.50;;;2.70;99.90;;;;;;5038649;28;20029;-64
2024/03/07 08:35:11;;;;;;;86.25;29.35;;;2.70;99.90;;;;;;5044913;28;20013;-65
2024/03/07 08:37:44;;;;;;;86.13;30.95;;;2.70;99.90;;;;;;5043638;28;20093;-62
2024/03/07 08:40:12;;;;;;;78.70;29.45;;;2.80;99.90;;;;;;5038283;28;20037;-63
2024/03/07 08:42:42;;;;;;;76.13;27.27;;;3.00;99.90;;;;;;5046862;28;20044;-62
2024/03/07 08:45:10;;;;;;;73.10;27.33;;;3.10;99.90;;;;;;5041005;28;20032;-63
2024/03/07 08:47:37;;;;;;;67.50;26.92;;;3.20;99.90;;;;;;5033580;28;20029;-63
2024/03/07 08:50:08;;;;;;;67.65;26.90;;;3.30;99.90;;;;;;5057877;28;20103;-62
2024/03/07 08:52:37;;;;;;;58.67;24.58;;;3.30;99.90;;;;;;5047960;28;20024;-63
2024/03/07 08:55:04;;;;;;;67.68;23.73;;;3.30;99.90;;;;;;5040397;28;20021;-62
2024/03/07 08:57:30;;;;;;;59.78;23.98;;;3.30;99.90;;;;;;5046045;28;20505;-64
2024/03/07 08:59:56;;;;;;;51.20;21.00;;;3.50;99.90;;;;;;5049406;28;20036;-63
2024/03/07 09:02:22;;;;;;;55.72;22.13;;;3.70;99.90;;;;;;5044092;28;20033;-63
2024/03/07 09:04:48;;;;;;;56.83;23.80;;;3.90;99.90;;;;;;5048366;28;20074;-64
2024/03/07 09:07:17;;;;;;;55.53;22.50;;;3.80;99.90;;;;;;5043209;28;20057;-61
2024/03/07 09:09:43;;;;;;;51.00;21.77;;;3.80;99.90;;;;;;5048454;28;20085;-62
2024/03/07 09:12:09;;;;;;;50.15;21.20;;;4.00;99.90;;;;;;5048421;28;20021;-63
2024/03/07 09:14:35;;;;;;;53.28;20.88;;;4.30;99.90;;;;;;5047879;28;20088;-62
2024/03/07 09:17:01;;;;;;;47.28;21.05;;;4.40;99.90;;;;;;5044108;28;20032;-62
2024/03/07 09:19:28;;;;;;;49.60;21.30;;;4.60;99.90;;;;;;5044078;28;20040;-62
2024/03/07 09:21:54;;;;;;;48.38;22.02;;;4.60;99.90;;;;;;5047910;28;20032;-62
2024/03/07 09:24:23;;;;;;;50.30;22.58;;;4.80;99.90;;;;;;5042464;28;20033;-63
2024/03/07 09:26:52;;;;;;;37.15;18.02;;;4.80;99.90;;;;;;5041132;28;20120;-62
2024/03/07 09:29:19;;;;;;;41.25;19.38;;;4.80;99.90;;;;;;5045721;28;20419;-63
2024/03/07 09:31:46;;;;;;;45.78;21.65;;;4.80;99.90;;;;;;5041962;28;20021;-62
2024/03/07 09:34:12;;;;;;;45.67;19.00;;;4.70;99.90;;;;;;5036116;28;20091;-63
2024/03/07 09:36:40;;;;;;;40.97;20.00;;;4.70;99.90;;;;;;5048096;28;20079;-62
2024/03/07 09:39:08;;;;;;;45.88;22.00;;;5.60;99.90;;;;;;5040774;28;20040;-62
2024/03/07 09:41:33;;;;;;;42.13;19.10;;;4.90;99.90;;;;;;5043777;28;20071;-62
2024/03/07 09:44:01;;;;;;;45.83;18.70;;;4.90;99.90;;;;;;5043596;28;20502;-62
2024/03/07 09:46:27;;;;;;;43.72;20.40;;;4.90;99.90;;;;;;5046312;28;20036;-62
2024/03/07 09:48:54;;;;;;;43.97;18.38;;;5.00;99.90;;;;;;5046709;28;20382;-62
2024/03/07 09:51:20;;;;;;;42.20;19.30;;;5.20;99.90;;;;;;5040405;28;20748;-62
2024/03/07 09:53:49;;;;;;;38.08;17.05;;;5.40;99.90;;;;;;5041739;28;20571;-62
2024/03/07 09:56:19;;;;;;;39.17;18.98;;;5.60;99.90;;;;;;5037158;28;20022;-63
2024/03/07 09:58:50;;;;;;;38.97;17.05;;;5.80;99.90;;;;;;5044858;28;20025;-63
2024/03/07 10:01:20;;;;;;;39.72;16.85;;;5.80;99.90;;;;;;5041739;28;20068;-62
2024/03/07 10:03:47;;;;;;;37.53;17.77;;;5.90;99.90;;;;;;5040660;28;20064;-63
2024/03/07 10:06:14;;;;;;;33.42;17.40;;;5.90;99.90;;;;;;5038106;28;20352;-63
2024/03/07 10:08:42;;;;;;;36.17;16.40;;;5.80;99.90;;;;;;5039918;28;20028;-63
2024/03/07 10:11:09;;;;;;;33.38;17.00;;;6.00;99.90;;;;;;5043130;28;20009;-62
2024/03/07 10:13:35;;;;;;;36.80;17.00;;;6.10;99.90;;;;;;5042240;28;20036;-63
2024/03/07 10:16:01;;;;;;;40.03;17.95;;;6.40;99.90;;;;;;5043084;28;20282;-65
2024/03/07 10:18:27;;;;;;;30.77;15.07;;;6.30;99.90;;;;;;5037787;28;20025;-63
2024/03/07 10:20:56;;;;;;;36.08;16.13;;;6.30;99.90;;;;;;5044413;28;20108;-63
2024/03/07 10:23:22;;;;;;;36.17;17.45;;;6.30;99.90;;;;;;5040607;28;20032;-63
2024/03/07 10:25:49;;;;;;;35.58;15.63;;;6.40;99.90;;;;;;5041140;28;20484;-64
2024/03/07 10:28:18;;;;;;;31.23;14.75;;;6.50;99.90;;;;;;5039501;28;20052;-63
2024/03/07 10:30:44;;;;;;;32.55;15.05;;;6.80;99.90;;;;;;5036815;28;20068;-62
2024/03/07 10:33:12;;;;;;;31.92;16.08;;;7.20;99.90;;;;;;5040427;28;20022;-62
2024/03/07 10:35:38;;;;;;;32.80;14.52;;;7.40;99.90;;;;;;5042994;28;20017;-63
2024/03/07 10:38:07;;;;;;;39.20;15.00;;;7.30;99.90;;;;;;5037143;28;20021;-63
2024/03/07 10:40:35;;;;;;;31.67;14.52;;;7.40;99.90;;;;;;5042301;28;20138;-62
2024/03/07 10:43:09;;;;;;;32.88;16.63;;;8.00;99.90;;;;;;5045104;28;20056;-63
2024/03/07 10:45:43;;;;;;;31.08;16.23;;;9.10;99.90;;;;;;5033519;28;20138;-62
2024/03/07 10:48:12;;;;;;;30.40;13.88;;;9.80;99.90;;;;;;5043055;28;20036;-64
2024/03/07 10:50:55;;;;;;;31.27;13.98;;;10.10;99.90;;;;;;5037813;28;20034;-64
2024/03/07 10:53:35;;;;;;;27.20;12.75;;;10.40;99.90;;;;;;5043653;28;20372;-63
2024/03/07 10:56:00;;;;;;;28.40;16.35;;;10.60;99.90;;;;;;5041887;28;20095;-63
2024/03/07 10:58:42;;;;;;;31.52;16.38;;;10.20;99.90;;;;;;5044310;28;20029;-64
2024/03/07 11:01:11;;;;;;;29.77;13.63;;;9.60;99.90;;;;;;5038923;28;20113;-62
2024/03/07 11:03:37;;;;;;;27.83;13.32;;;9.40;99.90;;;;;;5038271;28;20033;-63
2024/03/07 11:06:06;;;;;;;28.58;13.00;;;9.20;99.90;;;;;;5040977;28;20478;-62
2024/03/07 11:08:36;;;;;;;29.60;13.20;;;9.10;99.90;;;;;;5038175;28;20017;-62
2024/03/07 11:11:02;;;;;;;31.83;13.30;;;9.10;99.90;;;;;;5040073;28;20025;-66
2024/03/07 11:13:29;;;;;;;32.97;15.07;;;9.30;99.90;;;;;;5040139;28;20170;-64
2024/03/07 11:15:58;;;;;;;30.05;14.95;;;9.50;99.90;;;;;;5041745;28;20022;-64
2024/03/07 11:18:24;;;;;;;28.80;15.27;;;9.50;99.90;;;;;;5038846;28;20085;-63
2024/03/07 11:20:50;;;;;;;26.13;12.63;;;9.50;99.90;;;;;;5041269;28;20524;-63
2024/03/07 11:23:30;;;;;;;28.23;12.90;;;9.80;99.90;;;;;;5040206;28;20033;-63
2024/03/07 11:26:07;;;;;;;27.60;11.35;;;11.20;99.90;;;;;;5038033;28;20021;-64
2024/03/07 11:28:34;;;;;;;27.30;13.15;;;12.80;99.90;;;;;;5040004;28;20060;-63
2024/03/07 11:31:28;;;;;;;26.13;11.77;;;13.20;99.90;;;;;;5042941;28;20013;-63
2024/03/07 11:34:19;;;;;;;28.27;13.75;;;12.80;99.90;;;;;;5036892;28;20551;-63
2024/03/07 11:36:46;;;;;;;28.30;13.00;;;12.10;99.90;;;;;;5030904;28;20638;-63
2024/03/07 11:39:47;;;;;;;28.35;14.63;;;12.20;99.90;;;;;;5039808;28;20049;-63
2024/03/07 11:42:26;;;;;;;30.38;14.70;;;11.60;99.90;;;;;;5036974;28;20037;-63
2024/03/07 11:44:56;;;;;;;32.10;16.38;;;10.50;99.90;;;;;;5039047;28;20123;-63
2024/03/07 11:47:25;;;;;;;30.55;13.95;;;10.20;99.90;;;;;;5039971;28;20032;-62
2024/03/07 11:49:53;;;;;;;30.20;13.35;;;10.00;99.90;;;;;;5041977;28;20142;-62
2024/03/07 11:52:20;;;;;;;26.65;12.70;;;10.00;99.90;;;;;;5037066;28;20036;-63
2024/03/07 11:54:46;;;;;;;27.30;13.07;;;10.30;99.90;;;;;;5039706;28;20095;-62
2024/03/07 11:57:32;;;;;;;26.88;13.75;;;10.80;99.90;;;;;;5038312;28;20033;-63
2024/03/07 12:00:00;;;;;;;26.70;13.23;;;11.30;99.90;;;;;;5042797;28;20029;-63
2024/03/07 12:02:27;;;;;;;23.45;11.65;;;12.10;99.90;;;;;;5036280;28;20039;-63
2024/03/07 12:04:53;;;;;;;28.02;13.05;;;13.10;99.90;;;;;;5043281;28;20480;-63
2024/03/07 12:07:22;;;;;;;25.63;13.02;;;13.10;99.80;;;;;;5042893;28;20512;-63
2024/03/07 12:09:50;;;;;;;23.30;11.82;;;12.60;99.90;;;;;;5039556;28;20111;-63
2024/03/07 12:12:18;;;;;;;23.67;10.98;;;12.30;99.90;;;;;;5043280;28;20116;-63
2024/03/07 12:14:43;;;;;;;24.63;13.07;;;12.00;99.90;;;;;;5039853;28;20041;-62
2024/03/07 12:17:09;;;;;;;23.77;11.77;;;11.40;99.90;;;;;;5035199;28;20042;-63
2024/03/07 12:19:35;;;;;;;23.42;11.00;;;10.90;99.90;;;;;;5038606;28;20491;-63
2024/03/07 12:22:02;;;;;;;25.63;10.95;;;10.90;99.90;;;;;;5039044;28;20041;-63
2024/03/07 12:24:29;;;;;;;22.92;10.32;;;10.90;99.90;;;;;;5037660;28;20071;-63
2024/03/07 12:27:10;;;;;;;21.35;10.75;;;10.80;99.90;;;;;;5041439;28;20714;-62
2024/03/07 12:29:42;;;;;;;24.00;11.52;;;10.80;99.90;;;;;;5042172;28;20034;-62
2024/03/07 12:32:10;;;;;;;25.85;11.25;;;10.50;99.90;;;;;;5043961;28;20032;-63